<?xml version="1.0" encoding="UTF-8" standalone="no" ?>
<gpx xmlns="http://www.topografix.com/GPX/1/1" xmlns:xsi="http://www.w3.org/2001/XMLSchema-instance" xsi:schemaLocation="http://www.topografix.com/GPX/1/1 http://www.topografix.com/GPX/1/1/gpx.xsd" version="1.1" creator="VisuGPX - https://www.visugpx.com">
  <metadata>
    <name>Balade</name>
    <desc><![CDATA[essai de transfer de tracé en itinéraire]]></desc>
  </metadata>
  <trk>
    <name><![CDATA[Tracé actuel: 03 AVR 2013 05:47]]></name>
    <trkseg>
      <trkpt lat="49.07488" lon="7.13507">
        <ele>214.51</ele>
        <time>2013-04-03T03:47:28Z</time>
      </trkpt>
      <trkpt lat="49.07503" lon="7.13538">
        <ele>214.51</ele>
        <time>2013-04-03T03:47:43Z</time>
      </trkpt>
      <trkpt lat="49.07505" lon="7.13543">
        <ele>214.03</ele>
        <time>2013-04-03T03:47:47Z</time>
      </trkpt>
      <trkpt lat="49.07512" lon="7.13541">
        <ele>214.03</ele>
        <time>2013-04-03T03:47:56Z</time>
      </trkpt>
      <trkpt lat="49.07512" lon="7.13534">
        <ele>214.03</ele>
        <time>2013-04-03T03:48:05Z</time>
      </trkpt>
      <trkpt lat="49.07535" lon="7.13543">
        <ele>214.99</ele>
        <time>2013-04-03T03:48:27Z</time>
      </trkpt>
      <trkpt lat="49.07537" lon="7.13544">
        <ele>214.99</ele>
        <time>2013-04-03T03:48:29Z</time>
      </trkpt>
      <trkpt lat="49.07543" lon="7.13546">
        <ele>216.43</ele>
        <time>2013-04-03T03:48:35Z</time>
      </trkpt>
      <trkpt lat="49.07572" lon="7.13563">
        <ele>215.47</ele>
        <time>2013-04-03T03:49:00Z</time>
      </trkpt>
      <trkpt lat="49.07597" lon="7.13582">
        <ele>215.47</ele>
        <time>2013-04-03T03:49:25Z</time>
      </trkpt>
      <trkpt lat="49.07608" lon="7.13589">
        <ele>215.47</ele>
        <time>2013-04-03T03:49:47Z</time>
      </trkpt>
      <trkpt lat="49.0763" lon="7.13601">
        <ele>215.47</ele>
        <time>2013-04-03T03:50:07Z</time>
      </trkpt>
      <trkpt lat="49.07658" lon="7.13614">
        <ele>214.51</ele>
        <time>2013-04-03T03:50:32Z</time>
      </trkpt>
      <trkpt lat="49.07662" lon="7.13618">
        <ele>214.51</ele>
        <time>2013-04-03T03:50:35Z</time>
      </trkpt>
      <trkpt lat="49.07683" lon="7.13624">
        <ele>213.55</ele>
        <time>2013-04-03T03:50:58Z</time>
      </trkpt>
      <trkpt lat="49.07697" lon="7.13624">
        <ele>212.59</ele>
        <time>2013-04-03T03:51:17Z</time>
      </trkpt>
      <trkpt lat="49.07698" lon="7.13624">
        <ele>213.07</ele>
        <time>2013-04-03T03:51:18Z</time>
      </trkpt>
      <trkpt lat="49.07721" lon="7.13627">
        <ele>212.59</ele>
        <time>2013-04-03T03:51:43Z</time>
      </trkpt>
      <trkpt lat="49.07726" lon="7.13623">
        <ele>212.11</ele>
        <time>2013-04-03T03:52:04Z</time>
      </trkpt>
      <trkpt lat="49.07756" lon="7.13606">
        <ele>212.11</ele>
        <time>2013-04-03T03:52:30Z</time>
      </trkpt>
      <trkpt lat="49.07782" lon="7.13594">
        <ele>212.11</ele>
        <time>2013-04-03T03:52:56Z</time>
      </trkpt>
      <trkpt lat="49.07799" lon="7.13585">
        <ele>212.59</ele>
        <time>2013-04-03T03:53:19Z</time>
      </trkpt>
      <trkpt lat="49.078" lon="7.13585">
        <ele>212.59</ele>
        <time>2013-04-03T03:53:22Z</time>
      </trkpt>
      <trkpt lat="49.07803" lon="7.13582">
        <ele>212.11</ele>
        <time>2013-04-03T03:53:26Z</time>
      </trkpt>
      <trkpt lat="49.07831" lon="7.13569">
        <ele>212.11</ele>
        <time>2013-04-03T03:53:52Z</time>
      </trkpt>
      <trkpt lat="49.07833" lon="7.1357">
        <ele>212.11</ele>
        <time>2013-04-03T03:53:54Z</time>
      </trkpt>
      <trkpt lat="49.07859" lon="7.13562">
        <ele>211.63</ele>
        <time>2013-04-03T03:54:19Z</time>
      </trkpt>
      <trkpt lat="49.07896" lon="7.13553">
        <ele>210.19</ele>
        <time>2013-04-03T03:54:49Z</time>
      </trkpt>
      <trkpt lat="49.07911" lon="7.13549">
        <ele>210.67</ele>
        <time>2013-04-03T03:55:09Z</time>
      </trkpt>
      <trkpt lat="49.07921" lon="7.13544">
        <ele>209.7</ele>
        <time>2013-04-03T03:55:18Z</time>
      </trkpt>
      <trkpt lat="49.07923" lon="7.13532">
        <ele>210.67</ele>
        <time>2013-04-03T03:55:25Z</time>
      </trkpt>
      <trkpt lat="49.07924" lon="7.1349">
        <ele>211.63</ele>
        <time>2013-04-03T03:55:50Z</time>
      </trkpt>
      <trkpt lat="49.0793" lon="7.13453">
        <ele>213.07</ele>
        <time>2013-04-03T03:56:14Z</time>
      </trkpt>
      <trkpt lat="49.0795" lon="7.1343">
        <ele>214.99</ele>
        <time>2013-04-03T03:56:35Z</time>
      </trkpt>
      <trkpt lat="49.07969" lon="7.13397">
        <ele>217.4</ele>
        <time>2013-04-03T03:57:00Z</time>
      </trkpt>
      <trkpt lat="49.07975" lon="7.13388">
        <ele>218.36</ele>
        <time>2013-04-03T03:57:19Z</time>
      </trkpt>
      <trkpt lat="49.07976" lon="7.13379">
        <ele>219.32</ele>
        <time>2013-04-03T03:57:40Z</time>
      </trkpt>
      <trkpt lat="49.07983" lon="7.13369">
        <ele>220.76</ele>
        <time>2013-04-03T03:57:49Z</time>
      </trkpt>
      <trkpt lat="49.08006" lon="7.13341">
        <ele>223.64</ele>
        <time>2013-04-03T03:58:13Z</time>
      </trkpt>
      <trkpt lat="49.08006" lon="7.13343">
        <ele>223.64</ele>
        <time>2013-04-03T03:58:15Z</time>
      </trkpt>
      <trkpt lat="49.08012" lon="7.13337">
        <ele>222.68</ele>
        <time>2013-04-03T03:58:21Z</time>
      </trkpt>
      <trkpt lat="49.0805" lon="7.13314">
        <ele>222.2</ele>
        <time>2013-04-03T03:58:50Z</time>
      </trkpt>
      <trkpt lat="49.08055" lon="7.13314">
        <ele>222.2</ele>
        <time>2013-04-03T03:58:57Z</time>
      </trkpt>
      <trkpt lat="49.08093" lon="7.13298">
        <ele>222.68</ele>
        <time>2013-04-03T03:59:26Z</time>
      </trkpt>
      <trkpt lat="49.08129" lon="7.13277">
        <ele>223.16</ele>
        <time>2013-04-03T03:59:54Z</time>
      </trkpt>
      <trkpt lat="49.08157" lon="7.13264">
        <ele>223.16</ele>
        <time>2013-04-03T04:00:18Z</time>
      </trkpt>
      <trkpt lat="49.08196" lon="7.13249">
        <ele>221.72</ele>
        <time>2013-04-03T04:00:45Z</time>
      </trkpt>
      <trkpt lat="49.08234" lon="7.13229">
        <ele>220.76</ele>
        <time>2013-04-03T04:01:13Z</time>
      </trkpt>
      <trkpt lat="49.08276" lon="7.1321">
        <ele>222.2</ele>
        <time>2013-04-03T04:01:44Z</time>
      </trkpt>
      <trkpt lat="49.08318" lon="7.13187">
        <ele>222.2</ele>
        <time>2013-04-03T04:02:16Z</time>
      </trkpt>
      <trkpt lat="49.08349" lon="7.13172">
        <ele>223.16</ele>
        <time>2013-04-03T04:02:39Z</time>
      </trkpt>
      <trkpt lat="49.08356" lon="7.13168">
        <ele>222.68</ele>
        <time>2013-04-03T04:02:45Z</time>
      </trkpt>
      <trkpt lat="49.08391" lon="7.13142">
        <ele>223.16</ele>
        <time>2013-04-03T04:03:14Z</time>
      </trkpt>
      <trkpt lat="49.08425" lon="7.13118">
        <ele>224.12</ele>
        <time>2013-04-03T04:03:40Z</time>
      </trkpt>
      <trkpt lat="49.0845" lon="7.13091">
        <ele>225.09</ele>
        <time>2013-04-03T04:04:04Z</time>
      </trkpt>
      <trkpt lat="49.08479" lon="7.13056">
        <ele>227.97</ele>
        <time>2013-04-03T04:04:32Z</time>
      </trkpt>
      <trkpt lat="49.08506" lon="7.13016">
        <ele>229.41</ele>
        <time>2013-04-03T04:05:01Z</time>
      </trkpt>
      <trkpt lat="49.08507" lon="7.13016">
        <ele>229.41</ele>
        <time>2013-04-03T04:05:04Z</time>
      </trkpt>
      <trkpt lat="49.08508" lon="7.13013">
        <ele>229.41</ele>
        <time>2013-04-03T04:05:06Z</time>
      </trkpt>
      <trkpt lat="49.08517" lon="7.12989">
        <ele>230.37</ele>
        <time>2013-04-03T04:05:23Z</time>
      </trkpt>
      <trkpt lat="49.08504" lon="7.12966">
        <ele>232.78</ele>
        <time>2013-04-03T04:05:43Z</time>
      </trkpt>
      <trkpt lat="49.0848" lon="7.12948">
        <ele>234.22</ele>
        <time>2013-04-03T04:06:06Z</time>
      </trkpt>
      <trkpt lat="49.08445" lon="7.12926">
        <ele>236.62</ele>
        <time>2013-04-03T04:06:35Z</time>
      </trkpt>
      <trkpt lat="49.08412" lon="7.12905">
        <ele>238.54</ele>
        <time>2013-04-03T04:07:02Z</time>
      </trkpt>
      <trkpt lat="49.08376" lon="7.12883">
        <ele>240.47</ele>
        <time>2013-04-03T04:07:31Z</time>
      </trkpt>
      <trkpt lat="49.08347" lon="7.12868">
        <ele>241.91</ele>
        <time>2013-04-03T04:07:59Z</time>
      </trkpt>
      <trkpt lat="49.08316" lon="7.12852">
        <ele>242.39</ele>
        <time>2013-04-03T04:08:24Z</time>
      </trkpt>
      <trkpt lat="49.08281" lon="7.12835">
        <ele>243.35</ele>
        <time>2013-04-03T04:08:52Z</time>
      </trkpt>
      <trkpt lat="49.08245" lon="7.12819">
        <ele>244.79</ele>
        <time>2013-04-03T04:09:20Z</time>
      </trkpt>
      <trkpt lat="49.08208" lon="7.12819">
        <ele>246.23</ele>
        <time>2013-04-03T04:09:51Z</time>
      </trkpt>
      <trkpt lat="49.08197" lon="7.12861">
        <ele>245.75</ele>
        <time>2013-04-03T04:10:16Z</time>
      </trkpt>
      <trkpt lat="49.08179" lon="7.12912">
        <ele>243.35</ele>
        <time>2013-04-03T04:10:43Z</time>
      </trkpt>
      <trkpt lat="49.0816" lon="7.12974">
        <ele>242.39</ele>
        <time>2013-04-03T04:11:13Z</time>
      </trkpt>
      <trkpt lat="49.08142" lon="7.12997">
        <ele>241.43</ele>
        <time>2013-04-03T04:11:31Z</time>
      </trkpt>
      <trkpt lat="49.08114" lon="7.13046">
        <ele>241.91</ele>
        <time>2013-04-03T04:12:01Z</time>
      </trkpt>
      <trkpt lat="49.08102" lon="7.13061">
        <ele>242.39</ele>
        <time>2013-04-03T04:12:16Z</time>
      </trkpt>
      <trkpt lat="49.08093" lon="7.13076">
        <ele>241.91</ele>
        <time>2013-04-03T04:12:26Z</time>
      </trkpt>
      <trkpt lat="49.0809" lon="7.13079">
        <ele>241.91</ele>
        <time>2013-04-03T04:12:28Z</time>
      </trkpt>
      <trkpt lat="49.08079" lon="7.13071">
        <ele>242.87</ele>
        <time>2013-04-03T04:12:38Z</time>
      </trkpt>
      <trkpt lat="49.08046" lon="7.13084">
        <ele>244.79</ele>
        <time>2013-04-03T04:13:03Z</time>
      </trkpt>
      <trkpt lat="49.08014" lon="7.13102">
        <ele>244.79</ele>
        <time>2013-04-03T04:13:28Z</time>
      </trkpt>
      <trkpt lat="49.07989" lon="7.13123">
        <ele>243.83</ele>
        <time>2013-04-03T04:13:50Z</time>
      </trkpt>
      <trkpt lat="49.07958" lon="7.13147">
        <ele>242.39</ele>
        <time>2013-04-03T04:14:15Z</time>
      </trkpt>
      <trkpt lat="49.07929" lon="7.13169">
        <ele>240.95</ele>
        <time>2013-04-03T04:14:37Z</time>
      </trkpt>
      <trkpt lat="49.07899" lon="7.13191">
        <ele>238.54</ele>
        <time>2013-04-03T04:15:00Z</time>
      </trkpt>
      <trkpt lat="49.0786" lon="7.13172">
        <ele>238.06</ele>
        <time>2013-04-03T04:15:27Z</time>
      </trkpt>
      <trkpt lat="49.07832" lon="7.13161">
        <ele>240.47</ele>
        <time>2013-04-03T04:15:50Z</time>
      </trkpt>
      <trkpt lat="49.07802" lon="7.13169">
        <ele>240.47</ele>
        <time>2013-04-03T04:16:12Z</time>
      </trkpt>
      <trkpt lat="49.07762" lon="7.13194">
        <ele>240.47</ele>
        <time>2013-04-03T04:16:42Z</time>
      </trkpt>
      <trkpt lat="49.07744" lon="7.132">
        <ele>240.47</ele>
        <time>2013-04-03T04:16:59Z</time>
      </trkpt>
      <trkpt lat="49.07703" lon="7.13213">
        <ele>239.02</ele>
        <time>2013-04-03T04:17:29Z</time>
      </trkpt>
      <trkpt lat="49.07686" lon="7.13214">
        <ele>238.54</ele>
        <time>2013-04-03T04:17:47Z</time>
      </trkpt>
      <trkpt lat="49.07653" lon="7.13222">
        <ele>238.06</ele>
        <time>2013-04-03T04:18:10Z</time>
      </trkpt>
      <trkpt lat="49.07645" lon="7.13265">
        <ele>235.66</ele>
        <time>2013-04-03T04:18:34Z</time>
      </trkpt>
      <trkpt lat="49.07645" lon="7.13313">
        <ele>233.74</ele>
        <time>2013-04-03T04:18:58Z</time>
      </trkpt>
      <trkpt lat="49.07649" lon="7.1337">
        <ele>230.37</ele>
        <time>2013-04-03T04:19:26Z</time>
      </trkpt>
      <trkpt lat="49.07651" lon="7.13409">
        <ele>227.97</ele>
        <time>2013-04-03T04:19:48Z</time>
      </trkpt>
      <trkpt lat="49.07649" lon="7.13425">
        <ele>227.01</ele>
        <time>2013-04-03T04:19:56Z</time>
      </trkpt>
      <trkpt lat="49.0762" lon="7.13461">
        <ele>226.05</ele>
        <time>2013-04-03T04:20:22Z</time>
      </trkpt>
      <trkpt lat="49.07592" lon="7.13466">
        <ele>224.12</ele>
        <time>2013-04-03T04:20:50Z</time>
      </trkpt>
      <trkpt lat="49.07575" lon="7.135">
        <ele>222.68</ele>
        <time>2013-04-03T04:21:15Z</time>
      </trkpt>
      <trkpt lat="49.07593" lon="7.13524">
        <ele>222.2</ele>
        <time>2013-04-03T04:21:38Z</time>
      </trkpt>
      <trkpt lat="49.07596" lon="7.13522">
        <ele>221.72</ele>
        <time>2013-04-03T04:22:03Z</time>
      </trkpt>
      <trkpt lat="49.07604" lon="7.13528">
        <ele>220.76</ele>
        <time>2013-04-03T04:22:27Z</time>
      </trkpt>
      <trkpt lat="49.07609" lon="7.13527">
        <ele>220.28</ele>
        <time>2013-04-03T04:22:31Z</time>
      </trkpt>
      <trkpt lat="49.07645" lon="7.13525">
        <ele>217.88</ele>
        <time>2013-04-03T04:22:56Z</time>
      </trkpt>
      <trkpt lat="49.07659" lon="7.13553">
        <ele>214.99</ele>
        <time>2013-04-03T04:23:14Z</time>
      </trkpt>
      <trkpt lat="49.07666" lon="7.13598">
        <ele>212.11</ele>
        <time>2013-04-03T04:23:36Z</time>
      </trkpt>
      <trkpt lat="49.07666" lon="7.13613">
        <ele>211.63</ele>
        <time>2013-04-03T04:23:42Z</time>
      </trkpt>
      <trkpt lat="49.0766" lon="7.13617">
        <ele>211.15</ele>
        <time>2013-04-03T04:23:46Z</time>
      </trkpt>
      <trkpt lat="49.07628" lon="7.13607">
        <ele>212.59</ele>
        <time>2013-04-03T04:24:10Z</time>
      </trkpt>
      <trkpt lat="49.07604" lon="7.1359">
        <ele>212.59</ele>
        <time>2013-04-03T04:24:33Z</time>
      </trkpt>
      <trkpt lat="49.07574" lon="7.13573">
        <ele>213.55</ele>
        <time>2013-04-03T04:24:57Z</time>
      </trkpt>
      <trkpt lat="49.07533" lon="7.13546">
        <ele>215.47</ele>
        <time>2013-04-03T04:25:30Z</time>
      </trkpt>
      <trkpt lat="49.07506" lon="7.13541">
        <ele>218.84</ele>
        <time>2013-04-03T04:25:54Z</time>
      </trkpt>
      <trkpt lat="49.07495" lon="7.13551">
        <ele>218.84</ele>
        <time>2013-04-03T04:26:13Z</time>
      </trkpt>
      <trkpt lat="49.07491" lon="7.13542">
        <ele>218.84</ele>
        <time>2013-04-03T04:26:39Z</time>
      </trkpt>
      <trkpt lat="49.07491" lon="7.13541">
        <ele>218.84</ele>
        <time>2013-04-03T04:26:54Z</time>
      </trkpt>
      <trkpt lat="49.07511" lon="7.13494">
        <ele>218.84</ele>
        <time>2013-04-03T04:27:26Z</time>
      </trkpt>
      <trkpt lat="49.07512" lon="7.13491">
        <ele>218.84</ele>
        <time>2013-04-03T04:27:27Z</time>
      </trkpt>
      <trkpt lat="49.07523" lon="7.13481">
        <ele>218.84</ele>
        <time>2013-04-03T04:27:35Z</time>
      </trkpt>
      <trkpt lat="49.07523" lon="7.13467">
        <ele>218.84</ele>
        <time>2013-04-03T04:27:36Z</time>
      </trkpt>
      <trkpt lat="49.07524" lon="7.13469">
        <ele>218.84</ele>
        <time>2013-04-03T04:27:37Z</time>
      </trkpt>
    </trkseg>
  </trk>
</gpx>